• Join FlightAware (Why Join?)
  • Login
  • US Flag 
02:41AM EDT


 

Airport Tracker/Info


-or-


 

Live Flight TrackerFlight Track Log ✈ JBU110 ✈ 18-Jun-2012 ✈ KMSY - KJFK

Flight Track Log - Related Links

Times and Time Zones

All times are in EDT time to prevent confusion due to time zone crossing. See the JBU110 flight status page for this flight to view local times or setup timezone preferences in your user account.

Time Position Orientation Groundspeed Altitude Reporting Facility
EDT Latitude Longitude Course Direction KTS MPH feet Rate Location/Type
07:21AM 29.9717 -90.2583 48° Northeast 174 200 800  Level Houston Center
07:27AM 30.0953 -90.1006 45° Northeast 295 339 12,200 2,040 Climbing Houston Center
07:28AM 30.1775 -90.0056 45° Northeast 362 417 14,000 1,800 Climbing Houston Center
07:29AM 30.2600 -89.9106 48° Northeast 391 450 15,800 1,740 Climbing Houston Center
07:30AM 30.3442 -89.8033 42° Northeast 407 468 17,500 1,920 Climbing Houston Center
07:31AM 30.4469 -89.6978 57° Northeast 435 501 19,700 2,400 Climbing Houston Center
07:32AM 30.5119 -89.5833 58° Northeast 435 501 22,400 2,040 Climbing Houston Center
07:33AM 30.5747 -89.4661 58° Northeast 430 495 23,800 1,320 Climbing Houston Center
07:34AM 30.6397 -89.3464 57° Northeast 430 495 25,100 1,200 Climbing Houston Center
07:35AM 30.7064 -89.2267 58° Northeast 430 495 26,300 1,200 Climbing Houston Center
07:36AM 30.7731 -89.1019 57° Northeast 443 510 27,600 1,200 Climbing Houston Center
07:37AM 30.8456 -88.9719 60° Northeast 454 522 28,700 1,020 Climbing Houston Center
07:38AM 30.9036 -88.8542 58° Northeast 460 529 29,700 1,080 Climbing Houston Center
07:39AM 30.9739 -88.7239 56° Northeast 471 542 30,900 1,320 Climbing Houston Center
07:40AM 31.0564 -88.5808 59° Northeast 471 542 32,400 1,260 Climbing Houston Center
07:41AM 31.1242 -88.4478 58° Northeast 471 542 33,500 1,260 Climbing Houston Center
07:42AM 31.1919 -88.3219 58° Northeast 466 536 35,000 1,140 Climbing Houston Center
07:43AM 31.2617 -88.1908 58° Northeast 461 531 35,800 540 Climbing Houston Center
07:45AM 31.4083 -87.9144 59° Northeast 492 566 37,000 300 Climbing Atlanta Center
07:46AM 31.4814 -87.7742 58° Northeast 474 545 37,000  Level Atlanta Center
07:47AM 31.5500 -87.6428 58° Northeast 469 540 37,000  Level Atlanta Center
07:48AM 31.6183 -87.5139 59° Northeast 464 534 37,000  Level Atlanta Center
07:49AM 31.6847 -87.3822 60° Northeast 464 534 37,000  Level Atlanta Center
07:50AM 31.7553 -87.2383 59° Northeast 464 534 37,000  Level Atlanta Center
07:51AM 31.8233 -87.1064 59° Northeast 458 527 37,000  Level Atlanta Center
07:52AM 31.8892 -86.9789 59° Northeast 459 528 37,000  Level Atlanta Center
07:53AM 31.9547 -86.8489 59° Northeast 459 528 37,000  Level Atlanta Center
07:54AM 32.0225 -86.7139 55° Northeast 465 535 37,000  Level Atlanta Center
07:55AM 32.0894 -86.6006 60° Northeast 465 535 37,000  Level Atlanta Center
07:56AM 32.1547 -86.4675 61° Northeast 465 535 37,000  Level Atlanta Center
07:57AM 32.2222 -86.3244 60° Northeast 454 522 37,000  Level Atlanta Center
07:58AM 32.2808 -86.2056 59° Northeast 454 522 37,000  Level Atlanta Center
07:59AM 32.3478 -86.0719 59° Northeast 454 522 37,000  Level Atlanta Center
08:00AM 32.4125 -85.9431 59° Northeast 459 528 37,000  Level Atlanta Center
08:01AM 32.4811 -85.8092 58° Northeast 464 534 37,000  Level Atlanta Center
08:02AM 32.5583 -85.6606 59° Northeast 470 541 37,000  Level Atlanta Center
08:03AM 32.6247 -85.5286 59° Northeast 470 541 37,100  Climbing Atlanta Center
08:04AM 32.6908 -85.3989 60° Northeast 461 531 37,000 -60 Descending Atlanta Center
08:05AM 32.7550 -85.2689 58° Northeast 461 531 37,000  Level Atlanta Center
08:06AM 32.8186 -85.1461 59° Northeast 450 518 37,000  Level Atlanta Center
08:07AM 32.8825 -85.0183 59° Northeast 441 507 37,000  Level Atlanta Center
08:08AM 32.9481 -84.8903 61° Northeast 441 507 37,000  Level Atlanta Center
08:09AM 33.0094 -84.7597 59° Northeast 446 513 37,000  Level Atlanta Center
08:10AM 33.0747 -84.6314 62° Northeast 451 519 37,000  Level Atlanta Center
08:11AM 33.1297 -84.5103 59° Northeast 451 519 37,000  Level Atlanta Center
08:12AM 33.1947 -84.3789 59° Northeast 451 519 37,000  Level Atlanta Center
08:13AM 33.2619 -84.2425 59° Northeast 461 531 37,000  Level Atlanta Center
08:14AM 33.3267 -84.1133 60° Northeast 461 531 37,000  Level Atlanta Center
08:15AM 33.3914 -83.9767 60° Northeast 466 536 37,000  Level Atlanta Center
08:16AM 33.4558 -83.8422 60° Northeast 466 536 37,000  Level Atlanta Center
08:17AM 33.5203 -83.7100 61° Northeast 466 536 37,000  Level Atlanta Center
08:18AM 33.5825 -83.5750 59° Northeast 466 536 37,000  Level Atlanta Center
08:19AM 33.6489 -83.4400 60° Northeast 466 536 37,000  Level Atlanta Center
08:20AM 33.7128 -83.3094 60° Northeast 466 536 37,000  Level Atlanta Center
08:21AM 33.7828 -83.1617 61° Northeast 466 536 37,000  Level Atlanta Center
08:22AM 33.8464 -83.0258 61° Northeast 461 531 37,000  Level Atlanta Center
08:23AM 33.9078 -82.8900 61° Northeast 467 537 37,000  Level Atlanta Center
08:24AM 33.9711 -82.7539 60° Northeast 459 528 37,000  Level Atlanta Center
08:25AM 34.0364 -82.6175 61° Northeast 459 528 37,000  Level Atlanta Center
08:26AM 34.0994 -82.4808 60° Northeast 465 535 37,000  Level Atlanta Center
08:27AM 34.1625 -82.3467 60° Northeast 465 535 37,000  Level Atlanta Center
08:28AM 34.2272 -82.2097 60° Northeast 465 535 37,000  Level Atlanta Center
08:29AM 34.2919 -82.0725 58° Northeast 465 535 37,000  Level Atlanta Center
08:30AM 34.3586 -81.9428 59° Northeast 465 535 37,000  Level Atlanta Center
08:31AM 34.4253 -81.8100 58° Northeast 460 529 37,000  Level Atlanta Center
08:32AM 34.4936 -81.6747 59° Northeast 460 529 37,000  Level Atlanta Center
08:33AM 34.5597 -81.5417 59° Northeast 460 529 37,000  Level Atlanta Center
08:34AM 34.6281 -81.4033 61° Northeast 460 529 37,000  Level Atlanta Center
08:35AM 34.6897 -81.2700 59° Northeast 460 529 37,000  Level Atlanta Center
08:36AM 34.7575 -81.1339 60° Northeast 460 529 37,000  Level Atlanta Center
08:37AM 34.8231 -80.9975 58° Northeast 460 529 37,000  Level Atlanta Center
08:38AM 34.8906 -80.8633 60° Northeast 460 529 37,000  Level Atlanta Center
08:39AM 34.9539 -80.7292 60° Northeast 460 529 37,000  Level Atlanta Center
08:40AM 35.0189 -80.5922 59° Northeast 465 535 37,000  Level Atlanta Center
08:42AM 35.1347 -80.3539 60° Northeast 465 535 37,000  Level Washington Center
08:43AM 35.2008 -80.2156 59° Northeast 465 535 37,000  Level Washington Center
08:44AM 35.2664 -80.0819 60° Northeast 464 534 37,000  Level Washington Center
08:45AM 35.3275 -79.9506 60° Northeast 459 528 37,000  Level Washington Center
08:46AM 35.3931 -79.8114 68° East 459 528 37,000  Level Washington Center
08:47AM 35.4419 -79.6661 61° Northeast 452 520 37,000  Level Washington Center
08:48AM 35.5094 -79.5164 61° Northeast 460 529 37,000  Level Washington Center
08:49AM 35.5725 -79.3764 63° Northeast 460 529 37,000  Level Washington Center
08:50AM 35.6311 -79.2361 61° Northeast 460 529 37,000  Level Washington Center
08:51AM 35.6936 -79.0983 62° Northeast 465 535 37,000  Level Washington Center
08:52AM 35.7542 -78.9578 62° Northeast 460 529 37,000  Level Washington Center
08:53AM 35.8164 -78.8144 62° Northeast 465 535 37,000  Level Washington Center
08:54AM 35.8697 -78.6883 62° Northeast 465 535 37,000  Level Washington Center
08:55AM 35.9297 -78.5469 62° Northeast 465 535 37,000  Level Washington Center
08:56AM 35.9917 -78.4031 62° Northeast 465 535 37,000  Level Washington Center
08:57AM 36.0533 -78.2614 63° Northeast 467 537 37,000  Level Washington Center
08:58AM 36.1128 -78.1194 63° Northeast 467 537 37,000  Level Washington Center
08:59AM 36.1764 -77.9644 63° Northeast 462 532 37,000  Level Washington Center
09:00AM 36.2356 -77.8219 62° Northeast 462 532 37,000  Level Washington Center
09:01AM 36.2944 -77.6819 62° Northeast 462 532 37,000  Level Washington Center
09:02AM 36.3553 -77.5392 65° Northeast 462 532 37,000  Level Washington Center
09:03AM 36.4075 -77.3986 64° Northeast 456 525 37,000  Level Washington Center
09:04AM 36.4594 -77.2681 63° Northeast 456 525 37,000  Level Washington Center
09:05AM 36.5175 -77.1244 50° Northeast 456 525 37,000  Level Washington Center
09:06AM 36.5983 -77.0044 39° Northeast 456 525 37,000  Level Washington Center
09:07AM 36.6956 -76.9053 41° Northeast 443 510 37,000  Level Washington Center
09:08AM 36.7883 -76.8058 40° Northeast 437 503 37,000  Level Washington Center
09:09AM 36.8875 -76.7033 39° Northeast 442 509 37,000  Level Washington Center
09:10AM 36.9822 -76.6058 40° Northeast 442 509 37,000  Level Washington Center
09:11AM 37.0767 -76.5056 40° Northeast 447 514 37,000  Level Washington Center
09:12AM 37.1733 -76.4050 40° Northeast 447 514 37,000  Level Washington Center
09:13AM 37.2783 -76.2939 40° Northeast 447 514 37,000  Level Washington Center
09:14AM 37.3728 -76.1928 36° Northeast 447 514 37,000 -60 Level Washington Center
09:15AM 37.4733 -76.0994 42° Northeast 447 514 36,900  Descending Washington Center
09:16AM 37.5656 -75.9953 39° Northeast 452 520 37,000  Climbing Washington Center
09:17AM 37.6597 -75.8986 41° Northeast 444 511 37,000  Level Washington Center
09:18AM 37.7539 -75.7967 41° Northeast 444 511 37,000  Level Washington Center
09:19AM 37.8478 -75.6944 40° Northeast 444 511 37,000  Level Washington Center
09:20AM 37.9417 -75.5944 40° Northeast 444 511 37,000  Level Washington Center
09:21AM 38.0356 -75.4942 31° Northeast 444 511 37,000  Level Washington Center
09:22AM 38.1397 -75.4147 27° Northeast 439 505 37,000  Level Washington Center
09:23AM 38.2478 -75.3458 25° Northeast 433 498 37,000  Level Washington Center
09:24AM 38.3603 -75.2792 29° Northeast 433 498 37,000  Level Washington Center
09:25AM 38.4686 -75.2019 25° Northeast 433 498 37,000  Level Washington Center
09:26AM 38.5789 -75.1350 27° Northeast 433 498 37,000  Level Washington Center
09:27AM 38.6869 -75.0650 27° Northeast 433 498 37,000 -240 Level Washington Center
09:28AM 38.7950 -74.9950 27° Northeast 433 498 36,600 -1,020 Descending Washington Center
09:29AM 38.9050 -74.9222 25° Northeast 433 498 35,100 -2,160 Descending Washington Center
09:30AM 39.0131 -74.8569 32° Northeast 428 493 32,300 -2,580 Descending Washington Center
09:31AM 39.1208 -74.7703 39° Northeast 428 493 30,000 -2,340 Descending Washington Center
09:32AM 39.2161 -74.6700 40° Northeast 439 505 27,700 -2,340 Descending Washington Center
09:33AM 39.3092 -74.5697 39° Northeast 439 505 25,300 -2,340 Descending Washington Center
09:34AM 39.4000 -74.4744 40° Northeast 433 498 23,100 -2,520 Descending Washington Center
09:35AM 39.4958 -74.3706 40° Northeast 419 482 20,100 -2,460 Descending New York Center
09:36AM 39.5822 -74.2753 39° Northeast 407 468 18,000 -1,440 Descending New York Center
09:37AM 39.6617 -74.1903 41° Northeast 385 443 17,300 -1,440 Descending New York Center
09:38AM 39.7328 -74.1100 41° Northeast 371 427 15,200 -1,680 Descending New York Center
09:39AM 39.8167 -74.0167 33° Northeast 366 421 14,000 -1,560 Descending New York Center
09:40AM 39.8978 -73.9475 28° Northeast 359 413 12,200 -1,500 Descending New York Center
09:41AM 39.9828 -73.8889 28° Northeast 347 399 11,000 -600 Descending New York Center
09:42AM 40.0486 -73.8431 27° Northeast 309 356 11,000 -660 Level New York Center
09:43AM 40.1292 -73.7897 28° Northeast 293 337 9,800 -1,320 Descending New York Center
09:44AM 40.1908 -73.7461 353° North 286 329 8,400 -1,920 Descending New York Center
09:45AM 40.2656 -73.7575 298° West 253 291 6,000 -1,980 Descending New York Center
09:46AM 40.3028 -73.8489 302° West 244 281 4,600 -1,020 Descending New York Center
09:47AM 40.3344 -73.9158 351° North 249 287 4,000 -840 Descending New York Center
09:48AM 40.3986 -73.9297 16° North 210 242 3,000 -660 Descending New York Center
09:49AM 40.4447 -73.9128 29° Northeast 200 230 2,700 -540 Descending New York Center
09:50AM 40.4936 -73.8767 33° Northeast 184 212 2,000 -360 Descending New York Center
09:51AM 40.5364 -73.8403 53° Northeast 173 199 2,000 -300 Level New York Center
09:51AM 40.5500 -73.8167 21° North 166 191 1,600 -840 Descending New York TRACON
09:52AM 40.5833 -73.8000 29° Northeast 138 159 800 -480 Descending New York TRACON
09:54AM 40.6383 -73.7603 276° West 139 160 400 -300 Descending New York Center
10:01AM 40.7204 -74.9143 276° West  Level Estimated